Flugplatz Hamburg (EDDH)

Hier findest Du alle Informationen zum Flugplatz Hamburg (EDDH).

Informationen für Piloten zum Flugplatz Hamburg

Hier findest Du alle relevanten Informationen, die Du als Pilot benötigst, um Hamburg anzufliegen.

Flugplatz: Hamburg ICAO-Code: EDDH
Frequenz Turm: 123,250 Mhz GAFOR Gebiet: 3
Frequenz Ground: 121,800 Mhz Mogas: nein
Platzrunde: N 0 ft Landegebühr: 47,3 €
Platzhöhe: - Sunrise: 02:59 Uhr UTC
Pisten: 05/23 - 2.952 m x 45 m, ASPH Sunset: 19:35 Uhr UTC

Flugwetter am Flugplatz Hamburg

Die METAR Information stammen aus EDDH.

METAR Code:
2020/04/01 21:50
EDDH 012150Z 25008KT 220V280 9999 FEW013 06/03 Q1014 NOSIG

Temperatur: 19,1 °C Niederschlag: - Wind: 8,9 kt
Temperatur (min.): 19,0 °C Luftdruck: 1032 hPa Windrichtung: 280 °
Temperatur (max.): 19,4 °C Luftfeuchtigkeit: 55 % Bewölkung: 6/8

Flugschulen am Flugplatz Hamburg

Am Flugplatz Hamburg gibt es leider keine Flugschule.

Benachbarte Flugplätze und Flugschulen

Es gibt 9 weitere Flugplätze in einem Umkreis von 50 km um den Flugplatz Hamburg.

Jetzt anmelden

Passwort vergessen

Umfrage Archiv

Wären Rettungsgeräte keine Pflicht mehr, würdet Ihr Euer UL trotzdem mit einem ausstatten?

Ja
78.7 %
Nein
21.3 %
Stimmen: 108 | Diskussion
Anzeige: Roland Aircraft
Statistik Alle Mitglieder

Aktuell sind 55 Besucher online, davon 1 Mitglied und 54 Gäste.


Mitglieder online:
suchoi27 

Anzeige: VFR Sprechfunk Simulator


Anzeige: Pocket FMS